Time;durP1;ratioP1;P1;durP2;ratioP2;P2;SDS_P1;SDS_P2;PMS_P1;PMS_P2;Temp;Humidity;BMP_temperature;BMP_pressure;BME280_temperature;BME280_humidity;BME280_pressure;Samples;Min_cycle;Max_cycle;Signal;HPM_P1;HPM_P2
2021/12/06 00:02:00;;;;;;;26.05;15.30;;;;;;;4.55;94.48;101378.06;5018393;28;20040;-79
2021/12/06 00:04:28;;;;;;;24.95;16.27;;;;;;;4.55;94.54;101386.69;5012699;28;20060;-79
2021/12/06 00:06:55;;;;;;;30.00;16.23;;;;;;;4.57;94.57;101381.50;5025627;28;20037;-79
2021/12/06 00:09:22;;;;;;;24.83;15.50;;;;;;;4.54;94.49;101384.97;5003517;28;20506;-79
2021/12/06 00:11:50;;;;;;;27.55;16.35;;;;;;;4.56;94.41;101384.94;5034291;28;20093;-79
2021/12/06 00:14:15;;;;;;;31.05;17.38;;;;;;;4.59;94.49;101390.13;5019241;28;20056;-79
2021/12/06 00:16:41;;;;;;;30.17;18.05;;;;;;;4.63;94.68;101390.97;5017953;28;20045;-79
2021/12/06 00:19:06;;;;;;;36.40;19.42;;;;;;;4.66;94.89;101384.03;5019319;28;20076;-79
2021/12/06 00:21:32;;;;;;;35.38;18.23;;;;;;;4.67;95.00;101392.66;5018822;28;20061;-79
2021/12/06 00:23:57;;;;;;;35.30;19.55;;;;;;;4.74;94.95;101399.53;5012331;28;20060;-79
2021/12/06 00:26:23;;;;;;;34.42;19.40;;;;;;;4.76;95.09;101390.84;5020639;28;20511;-79
2021/12/06 00:28:56;;;;;;;36.78;19.77;;;;;;;4.80;95.32;101399.47;5031400;28;20359;-79
2021/12/06 00:31:21;;;;;;;41.08;20.92;;;;;;;4.76;95.05;101392.59;5024749;28;20052;-79
2021/12/06 00:33:53;;;;;;;42.78;21.02;;;;;;;4.75;95.14;101402.13;5019401;28;20377;-79
2021/12/06 00:36:26;;;;;;;37.78;20.85;;;;;;;4.76;94.87;101410.75;5021394;28;20041;-79
2021/12/06 00:38:52;;;;;;;40.72;20.48;;;;;;;4.77;94.79;101402.97;5026143;28;20059;-79
2021/12/06 00:41:18;;;;;;;38.20;21.20;;;;;;;4.75;94.71;101417.69;5014128;28;20294;-79
2021/12/06 00:43:43;;;;;;;36.17;20.65;;;;;;;4.71;94.48;101409.91;5019423;28;20036;-79
2021/12/06 00:46:09;;;;;;;41.13;22.02;;;;;;;4.68;94.50;101408.22;5004225;28;20035;-79
2021/12/06 00:48:34;;;;;;;39.92;21.67;;;;;;;4.65;94.35;101410.81;5010167;28;20042;-79
2021/12/06 00:51:00;;;;;;;37.65;20.92;;;;;;;4.68;94.51;101417.75;5034353;28;20042;-79
2021/12/06 00:53:25;;;;;;;40.30;21.83;;;;;;;4.68;94.53;101425.53;5000552;28;20381;-79
2021/12/06 00:55:50;;;;;;;37.33;21.50;;;;;;;4.68;94.65;101423.78;5026580;28;20202;-79
2021/12/06 00:58:16;;;;;;;39.25;21.30;;;;;;;4.68;94.72;101430.72;5017159;28;20214;-79
2021/12/06 01:00:44;;;;;;;36.58;20.05;;;;;;;4.61;94.28;101435.94;5018815;28;20045;-79
2021/12/06 01:03:25;;;;;;;35.65;21.17;;;;;;;4.55;94.00;101440.31;5000679;28;20044;-79
2021/12/06 01:05:50;;;;;;;39.78;21.23;;;;;;;4.53;93.97;101450.69;5018503;28;20253;-79
2021/12/06 01:08:16;;;;;;;38.67;21.52;;;;;;;4.52;93.86;101455.88;5017182;28;20033;-79
2021/12/06 01:10:42;;;;;;;40.88;20.63;;;;;;;4.53;94.11;101455.88;5022165;28;20117;-79
2021/12/06 01:13:07;;;;;;;40.75;20.40;;;;;;;4.55;94.12;101459.31;5000943;28;20044;-79
2021/12/06 01:15:33;;;;;;;40.05;22.00;;;;;;;4.54;94.24;101462.78;5031690;28;20048;-79
2021/12/06 01:18:01;;;;;;;43.70;21.48;;;;;;;4.55;94.29;101471.44;5020912;28;20282;-79
2021/12/06 01:20:29;;;;;;;38.83;21.52;;;;;;;4.61;94.40;101474.00;4997561;28;20030;-79
2021/12/06 01:23:07;;;;;;;38.35;21.52;;;;;;;4.62;94.42;101478.31;5021432;28;20038;-79
2021/12/06 01:29:02;;;;;;;38.42;20.92;;;;;;;4.71;94.80;101474.78;4988402;28;20361;-79
2021/12/06 01:32:16;;;;;;;41.95;22.45;;;;;;;4.70;95.00;101481.72;5022315;28;20276;-79
2021/12/06 01:39:35;;;;;;;36.38;21.35;;;;;;;4.67;94.82;101480.88;5029227;28;20075;-79
2021/12/06 01:42:01;;;;;;;37.45;21.02;;;;;;;4.66;94.71;101481.72;5021928;28;20046;-79
2021/12/06 01:44:27;;;;;;;38.72;21.92;;;;;;;4.64;94.57;101492.16;5025814;28;20116;-79
2021/12/06 01:46:55;;;;;;;38.92;20.75;;;;;;;4.65;94.32;101495.59;5040448;28;20277;-79
2021/12/06 01:49:22;;;;;;;40.72;22.30;;;;;;;4.70;94.61;101499.03;5023232;28;20237;-79
2021/12/06 01:51:48;;;;;;;43.10;22.08;;;;;;;4.72;94.92;101500.72;5004423;28;20182;-79
2021/12/06 01:54:14;;;;;;;45.15;23.33;;;;;;;4.73;95.21;101496.41;5003680;28;20058;-79
2021/12/06 01:56:40;;;;;;;43.53;23.17;;;;;;;4.72;95.18;101495.53;5015281;28;20026;-79
2021/12/06 01:59:05;;;;;;;47.08;23.77;;;;;;;4.72;95.22;101490.34;5022645;28;20249;-79
2021/12/06 02:01:31;;;;;;;45.55;22.98;;;;;;;4.71;95.39;101491.25;5019666;28;20045;-79
2021/12/06 02:03:56;;;;;;;43.85;23.67;;;;;;;4.71;95.10;101491.25;5029352;28;20097;-79
2021/12/06 02:06:22;;;;;;;46.70;23.10;;;;;;;4.70;95.18;101492.09;5000078;28;20553;-79
2021/12/06 02:08:47;;;;;;;46.35;22.65;;;;;;;4.68;94.96;101493.00;5009635;28;20033;-79
2021/12/06 02:11:13;;;;;;;43.88;23.90;;;;;;;4.66;94.78;101490.41;5013622;28;20029;-79
2021/12/06 02:14:51;;;;;;;43.55;23.55;;;;;;;4.67;94.81;101489.50;5053119;28;20045;-79
2021/12/06 02:16:43;;;;;;;44.55;22.20;;;;;;;4.69;94.92;101494.69;5023572;28;20053;-79
2021/12/06 02:19:09;;;;;;;45.35;24.13;;;;;;;4.73;94.80;101494.69;5034487;28;20026;-79
2021/12/06 02:21:39;;;;;;;38.35;21.67;;;;;;;4.75;95.08;101492.94;5028196;28;20315;-79
2021/12/06 02:24:08;;;;;;;42.03;22.92;;;;;;;4.78;95.26;101484.25;5020357;28;20351;-79
2021/12/06 02:26:33;;;;;;;47.30;24.33;;;;;;;4.77;95.26;101488.59;5030803;28;20367;-79
2021/12/06 02:28:59;;;;;;;42.40;23.73;;;;;;;4.76;95.16;101480.81;5018988;28;20038;-79
2021/12/06 02:31:25;;;;;;;43.40;22.70;;;;;;;4.73;95.07;101476.53;5028693;28;20037;-79
2021/12/06 02:33:50;;;;;;;42.63;23.20;;;;;;;4.72;94.92;101479.13;5038418;28;20041;-79
2021/12/06 02:36:17;;;;;;;36.58;20.95;;;;;;;4.70;94.73;101481.72;5027932;28;20072;-79
2021/12/06 02:38:42;;;;;;;43.17;22.92;;;;;;;4.72;94.83;101481.72;5038042;28;20156;-79
2021/12/06 02:41:09;;;;;;;42.83;22.95;;;;;;;4.75;94.96;101479.97;5017982;28;20045;-79
2021/12/06 02:43:34;;;;;;;42.70;21.10;;;;;;;4.78;95.15;101479.06;5017766;28;20033;-79
2021/12/06 02:46:00;;;;;;;37.15;21.73;;;;;;;4.74;95.07;101475.63;5038797;28;20091;-79
2021/12/06 02:48:25;;;;;;;40.25;21.20;;;;;;;4.71;95.03;101479.97;5037655;28;20356;-79
2021/12/06 02:50:54;;;;;;;41.42;22.33;;;;;;;4.67;94.77;101489.50;5038052;28;20045;-79
2021/12/06 02:53:21;;;;;;;40.60;21.52;;;;;;;4.64;94.50;101480.88;5020284;28;20045;-79
2021/12/06 02:55:52;;;;;;;38.88;20.70;;;;;;;4.60;94.31;101483.53;5019903;28;20069;-79
2021/12/06 03:01:00;;;;;;;38.25;20.13;;;;;;;4.58;94.27;101477.47;5021662;28;20336;-79
2021/12/06 03:03:26;;;;;;;37.90;20.63;;;;;;;4.56;94.24;101481.78;5038984;28;20044;-79
2021/12/06 03:05:52;;;;;;;37.45;20.55;;;;;;;4.56;94.29;101483.53;5039186;28;20087;-79
2021/12/06 03:08:46;;;;;;;35.97;20.88;;;;;;;4.54;94.11;101480.09;5021694;28;20104;-79
2021/12/06 03:11:38;;;;;;;36.92;21.08;;;;;;;4.48;93.94;101480.97;5020942;28;20373;-79
2021/12/06 03:14:08;;;;;;;34.88;20.80;;;;;;;4.41;93.50;101485.31;5031247;28;20067;-79
2021/12/06 03:16:33;;;;;;;36.90;21.38;;;;;;;4.35;92.93;101487.97;5019767;28;20065;-79
2021/12/06 03:19:00;;;;;;;37.53;21.00;;;;;;;4.29;92.71;101493.16;5035363;28;20037;-79
2021/12/06 03:21:25;;;;;;;35.30;20.52;;;;;;;4.23;92.49;101500.97;5035608;28;20375;-79
2021/12/06 03:23:55;;;;;;;33.67;20.13;;;;;;;4.18;92.46;101500.13;5022510;28;20025;-79
2021/12/06 03:26:20;;;;;;;31.05;19.63;;;;;;;4.12;92.51;101498.41;5038315;28;20206;-79
2021/12/06 03:28:46;;;;;;;36.28;19.52;;;;;;;4.09;92.40;101498.41;5021196;28;20056;-79
2021/12/06 03:31:11;;;;;;;35.10;18.55;;;;;;;4.07;92.39;101496.72;5020247;28;20029;-79
2021/12/06 03:33:38;;;;;;;34.17;19.90;;;;;;;4.03;92.41;101498.44;5033668;28;20272;-79
2021/12/06 03:36:05;;;;;;;35.05;20.17;;;;;;;4.03;92.77;101493.25;5038318;28;20045;-78
2021/12/06 03:38:30;;;;;;;33.28;19.02;;;;;;;4.05;92.82;101483.75;5017018;28;20113;-79
2021/12/06 03:40:56;;;;;;;32.30;19.65;;;;;;;4.09;93.35;101488.03;5036229;28;20048;-79
2021/12/06 03:43:21;;;;;;;34.95;19.80;;;;;;;4.12;93.56;101498.41;5037325;28;20113;-79
2021/12/06 03:45:46;;;;;;;36.78;21.35;;;;;;;4.09;93.55;101489.78;5022710;28;20047;-77
2021/12/06 03:48:12;;;;;;;33.90;19.48;;;;;;;4.04;93.09;101495.84;5030077;28;20052;-77
2021/12/06 03:50:37;;;;;;;38.70;21.90;;;;;;;4.03;92.96;101488.06;5020562;28;20513;-77
2021/12/06 03:53:03;;;;;;;37.03;20.38;;;;;;;4.07;93.18;101500.16;5027256;28;20104;-77
2021/12/06 03:55:28;;;;;;;34.72;21.13;;;;;;;4.10;93.56;101505.34;5010264;28;20094;-79
2021/12/06 03:57:54;;;;;;;41.95;21.98;;;;;;;4.13;93.72;101509.63;5063223;28;20219;-78
2021/12/06 04:00:19;;;;;;;38.78;21.77;;;;;;;4.10;93.74;101518.31;5066815;28;20041;-78
2021/12/06 04:02:44;;;;;;;37.25;20.00;;;;;;;4.08;93.40;101516.59;5044718;28;20041;-78
2021/12/06 04:05:10;;;;;;;37.13;20.63;;;;;;;4.03;93.04;101521.78;5047349;28;20037;-78
2021/12/06 04:07:35;;;;;;;40.97;19.85;;;;;;;4.00;92.90;101525.25;5030661;28;20033;-78
2021/12/06 04:10:03;;;;;;;37.25;20.30;;;;;;;3.96;92.62;101522.66;5014917;28;20232;-78
2021/12/06 04:12:28;;;;;;;39.60;20.30;;;;;;;3.90;92.65;101520.09;4999130;28;20080;-78
2021/12/06 04:14:54;;;;;;;34.22;19.25;;;;;;;3.87;92.46;101520.09;5030947;28;20033;-78
2021/12/06 04:17:20;;;;;;;36.35;20.33;;;;;;;3.80;92.30;101517.53;5032083;28;20116;-78
2021/12/06 04:19:45;;;;;;;34.85;19.77;;;;;;;3.76;92.22;101515.78;5014233;28;20242;-78
2021/12/06 04:22:11;;;;;;;38.03;19.10;;;;;;;3.73;92.08;101523.56;5030897;28;20029;-78
2021/12/06 04:24:37;;;;;;;33.25;19.33;;;;;;;3.69;92.28;101534.78;5030740;28;20044;-78
2021/12/06 04:27:12;;;;;;;32.03;18.52;;;;;;;3.67;92.11;101533.91;5030878;28;20089;-78
2021/12/06 04:29:39;;;;;;;32.15;18.83;;;;;;;3.62;92.04;101531.34;5031569;28;20025;-78
2021/12/06 04:32:05;;;;;;;29.42;17.90;;;;;;;3.61;92.01;101539.97;5044186;28;20037;-78
2021/12/06 04:34:30;;;;;;;31.90;18.20;;;;;;;3.57;91.93;101533.09;5033331;28;20218;-78
2021/12/06 04:36:56;;;;;;;34.00;18.73;;;;;;;3.54;92.08;101530.47;5033071;28;20048;-77
2021/12/06 04:39:21;;;;;;;33.47;17.75;;;;;;;3.53;92.21;101527.88;5050840;28;20048;-78
2021/12/06 04:41:47;;;;;;;31.60;18.08;;;;;;;3.51;92.07;101538.28;5050094;28;20099;-78
2021/12/06 04:44:12;;;;;;;35.40;18.73;;;;;;;3.49;92.25;101528.75;5009582;28;20038;-78
2021/12/06 04:46:38;;;;;;;30.38;16.48;;;;;;;3.45;92.24;101523.56;5014260;28;20101;-78
2021/12/06 04:49:04;;;;;;;31.77;18.35;;;;;;;3.44;92.34;101519.28;5022057;28;20044;-78
2021/12/06 04:51:29;;;;;;;27.67;17.58;;;;;;;3.42;92.34;101513.25;5030732;28;20025;-78
2021/12/06 04:53:55;;;;;;;35.88;18.30;;;;;;;3.40;92.27;101509.78;5040782;28;20062;-78
2021/12/06 04:56:26;;;;;;;30.75;17.75;;;;;;;3.37;92.05;101495.97;5033669;28;20028;-77
2021/12/06 04:58:54;;;;;;;30.55;17.98;;;;;;;3.34;92.09;101506.31;5050704;28;20041;-78
2021/12/06 05:01:24;;;;;;;29.88;16.88;;;;;;;3.32;91.94;101510.66;5051292;28;20017;-78
2021/12/06 05:03:51;;;;;;;29.88;17.65;;;;;;;3.29;92.03;101510.63;5030159;28;20059;-78
2021/12/06 05:06:23;;;;;;;26.85;17.65;;;;;;;3.25;91.85;101508.03;5030228;28;20044;-78
2021/12/06 05:08:51;;;;;;;25.85;15.70;;;;;;;3.22;91.60;101512.34;5000961;28;20026;-78
2021/12/06 05:11:18;;;;;;;31.02;17.45;;;;;;;3.20;91.73;101514.97;5015506;28;20084;-78
2021/12/06 05:13:44;;;;;;;35.70;17.52;;;;;;;3.18;91.78;101527.00;5034247;28;20036;-78
2021/12/06 05:16:09;;;;;;;28.35;17.08;;;;;;;3.16;91.78;101523.56;5048956;28;20033;-78
2021/12/06 05:18:35;;;;;;;32.45;17.95;;;;;;;3.16;91.95;101533.06;5032129;28;20041;-78
2021/12/06 05:21:00;;;;;;;39.65;20.90;;;;;;;3.15;91.99;101523.59;5048479;28;20037;-78
2021/12/06 05:23:25;;;;;;;38.53;20.58;;;;;;;3.14;91.84;101532.22;5032081;28;20033;-78
2021/12/06 05:25:51;;;;;;;38.85;21.48;;;;;;;3.14;92.32;101533.06;5047942;28;20033;-78
2021/12/06 05:28:21;;;;;;;37.75;20.98;;;;;;;3.15;92.58;101524.44;5027213;28;20045;-78
2021/12/06 05:30:48;;;;;;;43.00;20.67;;;;;;;3.16;92.72;101531.34;5013300;28;20037;-78
2021/12/06 05:33:27;;;;;;;51.10;24.13;;;;;;;3.18;93.01;101542.53;5039968;28;20029;-77
2021/12/06 05:35:53;;;;;;;45.05;22.35;;;;;;;3.21;93.20;101547.72;5048853;28;20307;-78
2021/12/06 05:38:19;;;;;;;52.03;23.20;;;;;;;3.26;93.53;101556.38;5032508;28;20037;-78
2021/12/06 05:40:46;;;;;;;47.67;24.85;;;;;;;3.29;93.66;101547.72;5016188;28;20112;-78
2021/12/06 05:43:12;;;;;;;55.28;25.40;;;;;;;3.30;93.77;101548.63;5049078;28;20056;-78
2021/12/06 05:45:38;;;;;;;58.17;24.58;;;;;;;3.32;93.72;101552.94;5016644;28;20033;-77
2021/12/06 05:48:04;;;;;;;49.90;25.05;;;;;;;3.32;93.84;101549.47;5028373;28;20037;-77
2021/12/06 05:50:30;;;;;;;51.65;24.13;;;;;;;3.33;93.85;101543.44;5023232;28;20065;-78
2021/12/06 05:52:55;;;;;;;53.08;24.55;;;;;;;3.35;93.90;101539.13;5012260;28;20061;-78
2021/12/06 05:55:23;;;;;;;52.58;23.45;;;;;;;3.36;93.90;101543.44;5012890;28;20045;-78
2021/12/06 05:57:49;;;;;;;46.88;23.77;;;;;;;3.35;93.87;101531.38;5048472;28;20033;-78
2021/12/06 06:00:16;;;;;;;55.70;24.98;;;;;;;3.36;94.20;101538.25;5028246;28;20020;-78
2021/12/06 06:02:41;;;;;;;52.80;24.80;;;;;;;3.39;94.19;101530.50;4999553;28;20247;-78
2021/12/06 06:05:08;;;;;;;55.58;26.08;;;;;;;3.41;94.22;101539.13;5020116;28;20072;-78
2021/12/06 06:07:34;;;;;;;49.78;25.42;;;;;;;3.39;94.22;101538.28;5017933;28;20022;-78
2021/12/06 06:09:59;;;;;;;55.22;25.15;;;;;;;3.37;94.20;101530.50;5036971;28;20378;-78
2021/12/06 06:12:25;;;;;;;51.88;25.15;;;;;;;3.37;94.22;101540.84;5037717;28;20018;-78
2021/12/06 06:14:50;;;;;;;46.97;22.95;;;;;;;3.36;94.36;101533.09;5034757;28;20064;-78
2021/12/06 06:17:19;;;;;;;51.97;25.05;;;;;;;3.35;94.30;101542.59;5034572;28;20037;-78
2021/12/06 06:19:52;;;;;;;57.28;25.63;;;;;;;3.34;94.41;101543.44;5039541;28;20088;-78
2021/12/06 06:22:18;;;;;;;54.55;25.50;;;;;;;3.35;94.46;101546.91;5017468;28;20037;-78
2021/12/06 06:24:44;;;;;;;49.72;24.52;;;;;;;3.35;94.41;101552.09;5002617;28;20022;-78
2021/12/06 06:27:09;;;;;;;47.72;24.48;;;;;;;3.34;94.46;101550.34;5054912;28;20041;-78
2021/12/06 06:29:35;;;;;;;51.50;25.13;;;;;;;3.34;94.40;101558.97;5052957;28;20089;-78
2021/12/06 06:32:01;;;;;;;48.90;24.50;;;;;;;3.33;94.53;101562.44;5054150;28;20028;-78
2021/12/06 06:34:27;;;;;;;47.20;24.33;;;;;;;3.33;94.43;101565.03;5034792;28;20089;-78
2021/12/06 06:36:52;;;;;;;51.90;23.88;;;;;;;3.35;94.39;101575.38;5017960;28;20029;-78
2021/12/06 06:39:19;;;;;;;49.35;24.65;;;;;;;3.35;94.59;101571.06;5018763;28;20038;-78
2021/12/06 06:41:48;;;;;;;50.95;24.30;;;;;;;3.40;94.56;101568.47;5002008;28;20025;-78
2021/12/06 06:44:15;;;;;;;49.13;24.50;;;;;;;3.43;94.67;101573.66;5046423;28;20090;-78
2021/12/06 06:46:41;;;;;;;54.55;25.38;;;;;;;3.46;94.75;101576.25;5035321;28;20025;-78
2021/12/06 06:49:07;;;;;;;57.08;26.08;;;;;;;3.44;95.05;101565.88;5031911;28;20253;-78
2021/12/06 06:51:32;;;;;;;53.67;25.75;;;;;;;3.45;94.82;101570.19;5033078;28;20052;-79
2021/12/06 06:53:58;;;;;;;54.28;25.95;;;;;;;3.45;94.84;101571.91;5000823;28;20105;-78
2021/12/06 06:56:23;;;;;;;53.88;25.77;;;;;;;3.45;94.90;101580.53;5016297;28;20045;-78
2021/12/06 06:58:50;;;;;;;56.58;25.50;;;;;;;3.45;94.89;101570.19;5033813;28;20033;-78
2021/12/06 07:01:16;;;;;;;57.63;26.23;;;;;;;3.44;94.78;101568.47;5015658;28;20337;-78
2021/12/06 07:03:41;;;;;;;50.33;24.05;;;;;;;3.45;94.76;101566.75;5053371;28;20127;-78
2021/12/06 07:06:07;;;;;;;51.60;25.25;;;;;;;3.45;94.85;101572.78;5052954;28;20034;-78
2021/12/06 07:08:32;;;;;;;55.92;25.90;;;;;;;3.45;94.97;101570.19;5036931;28;20034;-78
2021/12/06 07:10:58;;;;;;;54.28;25.80;;;;;;;3.46;94.92;101568.47;5052754;28;20041;-78
2021/12/06 07:13:26;;;;;;;61.00;26.50;;;;;;;3.46;94.73;101560.72;5047472;28;20345;-78
2021/12/06 07:15:52;;;;;;;52.80;26.23;;;;;;;3.47;94.55;101552.06;5049512;28;20026;-78
2021/12/06 07:18:17;;;;;;;51.60;25.30;;;;;;;3.48;94.85;101545.19;5065737;28;20292;-78
2021/12/06 07:20:43;;;;;;;59.33;27.40;;;;;;;3.49;94.88;101542.56;5016739;28;20025;-78
2021/12/06 07:23:08;;;;;;;63.35;29.27;;;;;;;3.46;95.07;101548.63;5047862;28;20018;-78
2021/12/06 07:25:34;;;;;;;59.05;27.48;;;;;;;3.45;94.81;101548.63;5035879;28;20022;-78
2021/12/06 07:28:00;;;;;;;54.47;26.10;;;;;;;3.45;94.94;101541.69;5046213;28;20029;-78
2021/12/06 07:30:26;;;;;;;54.05;26.73;;;;;;;3.44;94.88;101542.59;5024117;28;20045;-78
2021/12/06 07:32:52;;;;;;;61.30;27.83;;;;;;;3.45;94.97;101543.44;5031654;28;20060;-78
2021/12/06 07:35:18;;;;;;;57.33;25.15;;;;;;;3.46;94.98;101537.41;5056581;28;20033;-78
2021/12/06 07:37:44;;;;;;;63.63;25.88;;;;;;;3.45;94.95;101540.84;5032690;28;20336;-78
2021/12/06 07:40:11;;;;;;;60.15;26.35;;;;;;;3.45;94.92;101539.13;5024429;28;20053;-78
2021/12/06 07:42:37;;;;;;;57.17;25.63;;;;;;;3.45;94.99;101536.53;5005783;28;20240;-78
2021/12/06 07:45:06;;;;;;;57.70;27.23;;;;;;;3.44;94.94;101545.16;5023795;28;20018;-78
2021/12/06 07:47:32;;;;;;;;;;;;;;;3.43;94.75;101548.59;5045304;28;20083;-78
2021/12/06 07:49:57;;;;;;;57.85;26.25;;;;;;;3.40;94.61;101537.38;5035994;28;19917;-78
2021/12/06 07:52:23;;;;;;;61.25;26.58;;;;;;;3.39;94.54;101546.88;5050667;28;20064;-78
2021/12/06 07:54:48;;;;;;;59.25;26.35;;;;;;;3.39;94.71;101543.44;5031027;28;20063;-78
2021/12/06 07:57:14;;;;;;;58.25;26.27;;;;;;;3.38;94.91;101550.31;5034032;28;20026;-78
2021/12/06 07:59:39;;;;;;;56.15;26.05;;;;;;;3.40;94.91;101547.75;5034364;28;20045;-78
2021/12/06 08:02:05;;;;;;;55.85;25.67;;;;;;;3.40;94.95;101548.63;5009162;28;20026;-78
2021/12/06 08:04:31;;;;;;;56.03;25.98;;;;;;;3.41;95.04;101546.91;5007982;28;20045;-78
2021/12/06 08:06:56;;;;;;;59.00;27.73;;;;;;;3.40;95.10;101542.56;5025776;28;20120;-78
2021/12/06 08:09:22;;;;;;;54.97;25.30;;;;;;;3.38;95.01;101549.47;5040193;28;20047;-78
2021/12/06 08:11:47;;;;;;;57.22;25.90;;;;;;;3.36;94.78;101552.06;5019098;28;20036;-78
2021/12/06 08:14:13;;;;;;;60.50;26.90;;;;;;;3.36;94.66;101566.75;5020826;28;20030;-78
2021/12/06 08:16:40;;;;;;;57.08;26.80;;;;;;;3.36;95.04;101562.41;5007324;28;20029;-78
2021/12/06 08:19:07;;;;;;;61.75;26.95;;;;;;;3.37;94.82;101571.06;5038856;28;20040;-78
2021/12/06 08:21:32;;;;;;;61.92;26.88;;;;;;;3.37;94.96;101574.50;5021708;28;20048;-78
2021/12/06 08:24:02;;;;;;;64.38;27.73;;;;;;;3.39;95.08;101574.53;5015630;28;20025;-78
2021/12/06 08:26:29;;;;;;;64.20;27.77;;;;;;;3.40;95.10;101576.22;5038134;28;20103;-78
2021/12/06 08:28:58;;;;;;;68.43;28.20;;;;;;;3.42;95.04;101577.09;5019411;28;20056;-78
2021/12/06 08:31:24;;;;;;;63.33;27.85;;;;;;;3.42;95.14;101583.16;5034455;28;20029;-78
2021/12/06 08:33:50;;;;;;;62.63;27.75;;;;;;;3.43;95.09;101571.91;5038137;28;20033;-78
2021/12/06 08:36:16;;;;;;;64.18;28.73;;;;;;;3.42;95.08;101575.38;5031986;28;20083;-78
2021/12/06 08:38:41;;;;;;;63.38;27.83;;;;;;;3.43;95.19;101571.91;5029429;28;20321;-78
2021/12/06 08:41:10;;;;;;;67.63;28.77;;;;;;;3.43;95.00;101565.88;5041433;28;20026;-78
2021/12/06 08:43:36;;;;;;;66.47;30.95;;;;;;;3.45;95.02;101564.16;5017108;28;20257;-78
2021/12/06 08:46:36;;;;;;;68.70;28.63;;;;;;;3.45;95.04;101565.00;5019287;28;20040;-78
2021/12/06 08:49:05;;;;;;;68.97;30.00;;;;;;;3.45;95.04;101565.00;5002889;28;20037;-78
2021/12/06 08:51:41;;;;;;;66.43;29.25;;;;;;;3.47;95.11;101570.19;5053696;28;20056;-78
2021/12/06 08:54:07;;;;;;;76.70;30.85;;;;;;;3.49;95.29;101562.44;5033029;28;20041;-78
2021/12/06 08:56:33;;;;;;;80.53;31.80;;;;;;;3.48;95.25;101558.13;5031846;28;20101;-78
2021/12/06 08:58:58;;;;;;;76.25;31.38;;;;;;;3.50;95.12;101559.84;5020671;28;20036;-78
2021/12/06 09:01:28;;;;;;;79.18;32.25;;;;;;;3.50;95.14;101554.66;5028011;28;20032;-78
2021/12/06 09:03:53;;;;;;;89.20;34.28;;;;;;;3.51;95.28;101546.03;5037363;28;20029;-78
2021/12/06 09:06:19;;;;;;;84.47;34.63;;;;;;;3.50;95.44;101546.91;5053891;28;20209;-78
2021/12/06 09:08:44;;;;;;;80.90;35.03;;;;;;;3.53;95.14;101551.19;5045043;28;20040;-78
2021/12/06 09:11:10;;;;;;;85.40;35.05;;;;;;;3.51;95.13;101550.34;5047575;28;20028;-78
2021/12/06 09:13:35;;;;;;;85.53;34.05;;;;;;;3.49;95.22;101545.16;5020170;28;20025;-78
2021/12/06 09:16:02;;;;;;;88.13;34.17;;;;;;;3.51;95.11;101542.56;5044789;28;20021;-78
2021/12/06 09:18:34;;;;;;;85.40;33.55;;;;;;;3.52;95.10;101544.31;5039096;28;20047;-78
2021/12/06 09:21:01;;;;;;;89.40;35.13;;;;;;;3.50;95.11;101541.72;5054773;28;20045;-78
2021/12/06 09:23:26;;;;;;;80.00;33.28;;;;;;;3.50;95.35;101527.91;5053286;28;20025;-78
2021/12/06 09:25:52;;;;;;;85.20;34.47;;;;;;;3.48;95.03;101525.31;5003650;28;20097;-78
2021/12/06 09:28:17;;;;;;;86.90;31.33;;;;;;;3.51;95.07;101540.88;5043170;28;20021;-78
2021/12/06 09:30:43;;;;;;;76.95;32.00;;;;;;;3.50;95.10;101549.47;5018718;28;20028;-78
2021/12/06 09:33:10;;;;;;;78.32;31.85;;;;;;;3.51;95.08;101568.47;5015440;28;20033;-78
2021/12/06 09:35:37;;;;;;;89.18;33.72;;;;;;;3.50;94.98;101572.78;5035801;28;20053;-78
2021/12/06 09:38:02;;;;;;;85.70;31.95;;;;;;;3.52;95.13;101565.03;5035974;28;20045;-77
2021/12/06 09:40:28;;;;;;;84.00;32.40;;;;;;;3.52;94.88;101573.66;5055328;28;20031;-77
2021/12/06 09:42:54;;;;;;;76.95;32.88;;;;;;;3.51;95.27;101566.75;5042423;28;20033;-77
2021/12/06 09:45:24;;;;;;;80.65;32.00;;;;;;;3.50;94.91;101572.78;5053157;28;20045;-77
2021/12/06 09:47:51;;;;;;;84.05;30.85;;;;;;;3.52;94.99;101568.47;5043358;28;20028;-77
2021/12/06 09:50:38;;;;;;;78.63;29.60;;;;;;;3.53;94.86;101554.66;5031520;28;20034;-77
2021/12/06 09:53:05;;;;;;;82.78;29.63;;;;;;;3.51;94.91;101556.41;5037448;28;20345;-77
2021/12/06 09:55:32;;;;;;;68.40;27.80;;;;;;;3.52;94.89;101568.47;5083070;28;20029;-77
2021/12/06 09:57:57;;;;;;;77.63;28.80;;;;;;;3.53;95.01;101559.84;5037336;28;20123;-77
2021/12/06 10:00:24;;;;;;;81.85;29.83;;;;;;;3.54;94.82;101558.97;5059211;28;20033;-77
2021/12/06 10:02:50;;;;;;;73.22;26.85;;;;;;;3.53;94.88;101557.25;5037506;28;20025;-77
2021/12/06 10:05:16;;;;;;;79.30;28.90;;;;;;;3.54;94.93;101561.56;5032447;28;20017;-77
2021/12/06 10:07:41;;;;;;;71.22;26.88;;;;;;;3.53;94.97;101559.84;5043935;28;20052;-77
2021/12/06 10:10:07;;;;;;;73.50;27.23;;;;;;;3.53;94.90;101552.09;5025963;28;20079;-77
2021/12/06 10:12:33;;;;;;;77.57;27.70;;;;;;;3.53;94.87;101540.84;5038124;28;20036;-77
2021/12/06 10:15:02;;;;;;;81.05;29.02;;;;;;;3.51;94.65;101527.03;5034198;28;20055;-77
2021/12/06 10:17:28;;;;;;;71.28;26.10;;;;;;;3.52;94.55;101528.78;5042320;28;20410;-77
2021/12/06 10:19:53;;;;;;;73.53;26.85;;;;;;;3.52;94.60;101524.44;5059312;28;20056;-77
2021/12/06 10:22:18;;;;;;;70.28;25.88;;;;;;;3.50;94.55;101509.78;5059887;28;20037;-77
2021/12/06 10:24:58;;;;;;;72.68;26.00;;;;;;;3.54;94.56;101507.16;5072218;28;20024;-77
2021/12/06 10:27:24;;;;;;;70.13;25.05;;;;;;;3.55;94.60;101495.97;5064425;28;20051;-77
2021/12/06 10:29:54;;;;;;;66.30;25.48;;;;;;;3.56;94.61;101483.88;5025600;28;20333;-77
2021/12/06 10:32:25;;;;;;;76.60;26.58;;;;;;;3.56;94.69;101484.72;5052167;28;20335;-77
2021/12/06 10:35:10;;;;;;;75.43;27.52;;;;;;;3.53;94.40;101479.56;5030245;28;20021;-77
2021/12/06 10:37:51;;;;;;;67.95;25.55;;;;;;;3.50;94.00;101468.34;5085988;28;20040;-77
2021/12/06 10:40:38;;;;;;;72.68;25.92;;;;;;;3.49;93.71;101471.78;5057346;28;20029;-77
2021/12/06 10:43:06;;;;;;;65.30;24.17;;;;;;;3.46;93.85;101455.41;5055461;28;20352;-77
2021/12/06 10:45:50;;;;;;;70.43;25.63;;;;;;;3.50;94.10;101458.84;5020546;28;20018;-77
2021/12/06 10:48:22;;;;;;;68.55;26.10;;;;;;;3.50;94.05;101452.81;5069891;28;20028;-77
2021/12/06 10:50:51;;;;;;;69.28;26.23;;;;;;;3.49;93.77;101444.16;5038871;28;20040;-77
2021/12/06 10:53:18;;;;;;;76.00;28.30;;;;;;;3.47;93.77;101448.47;5062743;28;20036;-77
2021/12/06 10:55:44;;;;;;;67.25;26.70;;;;;;;3.45;93.45;101448.47;5056909;28;20057;-77
2021/12/06 10:58:17;;;;;;;74.70;29.10;;;;;;;3.45;93.61;101447.63;5055447;28;20095;-77
2021/12/06 11:00:53;;;;;;;72.70;27.50;;;;;;;3.44;93.59;101436.41;5076996;28;20032;-77
2021/12/06 11:03:47;;;;;;;67.03;28.45;;;;;;;3.44;93.69;101436.41;5058233;28;20038;-77
2021/12/06 11:06:18;;;;;;;69.50;28.95;;;;;;;3.42;93.68;101434.66;5072061;28;20037;-78
2021/12/06 11:08:44;;;;;;;74.57;28.38;;;;;;;3.44;93.74;101432.97;5054454;28;20032;-78
2021/12/06 11:11:11;;;;;;;75.82;29.25;;;;;;;3.45;93.84;101430.34;5037552;28;20017;-78
2021/12/06 11:13:39;;;;;;;70.95;29.83;;;;;;;3.43;93.84;101418.28;5034617;28;20044;-78
2021/12/06 11:16:04;;;;;;;75.43;29.02;;;;;;;3.44;93.80;101418.28;5034590;28;20029;-78
2021/12/06 11:18:33;;;;;;;71.35;27.30;;;;;;;3.43;93.53;101415.69;5071448;28;20040;-78
2021/12/06 11:20:59;;;;;;;68.53;26.95;;;;;;;3.40;93.49;101395.84;5060105;28;20029;-78
2021/12/06 11:23:24;;;;;;;63.00;25.80;;;;;;;3.41;93.49;101392.38;5050097;28;20096;-78
2021/12/06 11:26:08;;;;;;;67.10;26.80;;;;;;;3.38;93.37;101379.44;5037561;28;20029;-78
2021/12/06 11:28:33;;;;;;;69.75;26.45;;;;;;;3.39;93.32;101381.16;5032481;28;20049;-78
2021/12/06 11:31:01;;;;;;;66.70;25.95;;;;;;;3.40;93.28;101371.66;5038632;28;20024;-78